Time;durP1;ratioP1;P1;durP2;ratioP2;P2;SDS_P1;SDS_P2;PMS_P1;PMS_P2;Temp;Humidity;BMP_temperature;BMP_pressure;BME280_temperature;BME280_humidity;BME280_pressure;Samples;Min_cycle;Max_cycle;Signal;HPM_P1;HPM_P2
2021/04/10 00:01:27;;;;;;;17.77;6.07;;;;;;;0.26;74.17;96604.09;4972903;28;20695;-63
2021/04/10 00:03:54;;;;;;;15.23;6.77;;;;;;;0.26;74.32;96606.63;4972890;28;20295;-61
2021/04/10 00:06:21;;;;;;;28.13;11.77;;;;;;;0.15;74.25;96604.72;4972710;28;20678;-61
2021/04/10 00:08:49;;;;;;;27.97;13.93;;;;;;;-0.05;75.14;96605.53;4972971;28;20298;-63
2021/04/10 00:11:16;;;;;;;32.27;14.07;;;;;;;-0.15;76.51;96612.81;4972790;28;20235;-61
2021/04/10 00:13:43;;;;;;;27.90;14.33;;;;;;;-0.37;76.72;96618.31;4972620;28;20192;-61
2021/04/10 00:16:10;;;;;;;30.13;14.30;;;;;;;-0.50;77.59;96606.34;4972531;28;20726;-62
2021/04/10 00:18:38;;;;;;;28.73;14.03;;;;;;;-0.58;78.15;96609.09;4972385;28;20699;-61
2021/04/10 00:21:05;;;;;;;31.00;14.63;;;;;;;-0.65;78.82;96608.31;4972824;28;20683;-61
2021/04/10 00:23:32;;;;;;;47.30;20.03;;;;;;;-0.75;79.97;96600.25;4972481;28;20206;-62
2021/04/10 00:26:00;;;;;;;59.27;20.27;;;;;;;-0.84;81.29;96598.84;4972570;28;20270;-61
2021/04/10 00:28:27;;;;;;;35.50;16.30;;;;;;;-0.83;80.71;96590.22;4972202;28;20234;-61
2021/04/10 00:31:06;;;;;;;41.70;17.53;;;;;;;-0.90;81.61;96590.22;4971225;28;20551;-61
2021/04/10 00:33:33;;;;;;;46.60;18.77;;;;;;;-0.80;81.60;96589.84;4972286;28;20286;-64
2021/04/10 00:36:00;;;;;;;32.87;14.30;;;;;;;-0.78;81.78;96595.50;4972173;28;20203;-61
2021/04/10 00:38:29;;;;;;;30.77;14.50;;;;;;;-0.75;81.34;96595.16;4972050;28;20211;-62
2021/04/10 00:40:57;;;;;;;25.97;12.07;;;;;;;-0.93;81.69;96599.03;4972241;28;20799;-61
2021/04/10 00:43:25;;;;;;;27.00;13.30;;;;;;;-0.87;81.25;96594.91;4972245;28;20200;-61
2021/04/10 00:45:52;;;;;;;22.23;12.47;;;;;;;-1.00;80.36;96600.81;4972146;28;20207;-60
2021/04/10 00:48:19;;;;;;;22.80;11.07;;;;;;;-1.01;80.39;96596.66;4972018;28;20228;-62
2021/04/10 00:50:47;;;;;;;21.23;11.40;;;;;;;-1.25;80.62;96597.19;4972125;28;20262;-60
2021/04/10 00:53:16;;;;;;;17.27;10.87;;;;;;;-1.32;81.23;96591.28;4971886;28;20198;-61
2021/04/10 00:55:45;;;;;;;21.87;11.27;;;;;;;-1.25;81.96;96596.41;4971959;28;20199;-61
2021/04/10 00:58:12;;;;;;;18.93;10.27;;;;;;;-1.07;81.97;96587.22;4972065;28;20199;-61
2021/04/10 01:00:40;;;;;;;23.33;11.27;;;;;;;-1.16;81.72;96588.41;4971985;28;20238;-60
2021/04/10 01:03:07;;;;;;;23.10;11.93;;;;;;;-1.34;83.26;96588.91;4971701;28;20751;-61
2021/04/10 01:05:35;;;;;;;26.40;13.13;;;;;;;-1.32;83.03;96592.06;4972123;28;20214;-59
2021/04/10 01:08:02;;;;;;;24.83;12.63;;;;;;;-1.34;83.33;96583.03;4971658;28;20647;-59
2021/04/10 01:10:31;;;;;;;21.27;11.37;;;;;;;-1.29;83.77;96585.78;4971708;28;20195;-60
2021/04/10 01:13:06;;;;;;;22.40;11.17;;;;;;;-1.28;84.51;96579.72;4971606;28;20234;-60
2021/04/10 01:15:44;;;;;;;19.00;10.50;;;;;;;-1.37;84.60;96584.22;4971889;28;20234;-60
2021/04/10 01:18:17;;;;;;;18.43;9.57;;;;;;;-1.43;84.77;96589.28;4971602;28;20202;-61
2021/04/10 01:21:01;;;;;;;16.13;8.73;;;;;;;-1.40;84.94;96586.38;4971524;28;20320;-60
2021/04/10 01:24:15;;;;;;;15.10;8.30;;;;;;;-1.42;84.95;96583.22;4971437;28;20306;-60
2021/04/10 01:27:22;;;;;;;21.87;9.97;;;;;;;-1.40;84.80;96583.81;4971563;28;20663;-61
2021/04/10 01:29:53;;;;;;;19.93;8.53;;;;;;;-1.45;84.21;96586.16;4971351;28;20229;-61
2021/04/10 01:32:21;;;;;;;15.73;8.80;;;;;;;-1.42;83.83;96585.75;4971877;28;20187;-61
2021/04/10 01:34:55;;;;;;;15.67;8.47;;;;;;;-1.51;83.47;96581.81;4971573;28;20279;-61
2021/04/10 01:37:27;;;;;;;12.67;7.07;;;;;;;-1.58;84.14;96580.97;4971361;28;20820;-60
2021/04/10 01:39:55;;;;;;;12.87;7.20;;;;;;;-1.57;84.67;96578.25;4971114;28;20733;-61
2021/04/10 01:42:23;;;;;;;15.60;7.50;;;;;;;-1.57;83.98;96578.25;4970772;28;20227;-62
2021/04/10 01:44:53;;;;;;;14.10;7.80;;;;;;;-1.47;84.35;96583.78;4971324;28;20624;-61
2021/04/10 01:47:21;;;;;;;17.00;8.40;;;;;;;-1.49;84.16;96574.75;4971496;28;20197;-60
2021/04/10 01:49:50;;;;;;;20.30;8.80;;;;;;;-1.52;83.98;96575.94;4971117;28;20259;-61
2021/04/10 01:52:18;;;;;;;20.07;10.10;;;;;;;-1.55;82.67;96573.78;4971108;28;20662;-62
2021/04/10 01:54:46;;;;;;;24.70;9.53;;;;;;;-1.62;82.89;96570.41;4971101;28;20207;-61
2021/04/10 01:57:14;;;;;;;25.47;9.27;;;;;;;-1.81;83.40;96574.44;4971149;28;20289;-63
2021/04/10 01:59:44;;;;;;;22.63;10.40;;;;;;;-1.88;83.45;96571.06;4971140;28;20231;-61
2021/04/10 02:02:13;;;;;;;28.93;10.43;;;;;;;-1.97;83.97;96577.28;4971084;28;20210;-61
2021/04/10 02:04:45;;;;;;;20.00;9.20;;;;;;;-2.06;82.94;96578.41;4970752;28;20197;-61
2021/04/10 02:07:13;;;;;;;17.07;7.30;;;;;;;-2.05;82.57;96574.91;4971098;28;20302;-61
2021/04/10 02:09:43;;;;;;;15.93;8.23;;;;;;;-2.02;82.07;96574.50;4971481;28;20280;-61
2021/04/10 02:12:10;;;;;;;18.53;9.43;;;;;;;-2.05;82.55;96574.91;4971184;28;20218;-61
2021/04/10 02:14:38;;;;;;;20.13;9.97;;;;;;;-2.10;83.77;96582.31;4971142;28;20195;-61
2021/04/10 02:17:07;;;;;;;21.33;10.57;;;;;;;-2.00;83.48;96572.59;4971034;28;20236;-61
2021/04/10 02:19:35;;;;;;;25.73;11.50;;;;;;;-2.12;84.23;96574.06;4970958;28;20253;-61
2021/04/10 02:22:03;;;;;;;21.17;10.10;;;;;;;-2.06;85.42;96578.41;4970870;28;20787;-61
2021/04/10 02:24:30;;;;;;;20.30;10.10;;;;;;;-2.12;85.72;96578.38;4971329;28;20233;-61
2021/04/10 02:26:57;;;;;;;47.67;15.30;;;;;;;-2.15;86.38;96573.66;4970925;28;20208;-61
2021/04/10 02:29:25;;;;;;;21.73;10.37;;;;;;;-2.08;85.90;96580.34;4971041;28;20665;-61
2021/04/10 02:31:58;;;;;;;22.50;10.60;;;;;;;-2.28;85.67;96581.97;4971033;28;20206;-62
2021/04/10 02:34:28;;;;;;;21.27;9.33;;;;;;;-2.31;85.69;96579.81;4970962;28;20284;-61
2021/04/10 02:36:59;;;;;;;19.13;10.20;;;;;;;-2.34;85.46;96585.28;4971086;28;20276;-61
2021/04/10 02:39:28;;;;;;;16.50;8.70;;;;;;;-2.31;85.93;96579.81;4970875;28;20708;-61
2021/04/10 02:42:01;;;;;;;18.50;10.17;;;;;;;-2.40;85.31;96576.63;4970863;28;20219;-61
2021/04/10 02:44:35;;;;;;;27.30;13.67;;;;;;;-2.34;85.75;96580.97;4970859;28;20206;-60
2021/04/10 02:47:06;;;;;;;21.17;10.60;;;;;;;-2.36;85.78;96571.97;4970732;28;20217;-61
2021/04/10 02:49:40;;;;;;;21.63;9.93;;;;;;;-2.20;85.47;96569.13;4970685;28;20285;-61
2021/04/10 02:52:09;;;;;;;33.30;14.27;;;;;;;-2.20;85.54;96566.59;4970916;28;20561;-60
2021/04/10 02:54:43;;;;;;;27.53;12.23;;;;;;;-2.26;85.94;96568.13;4973032;28;20674;-60
2021/04/10 02:57:12;;;;;;;26.10;12.10;;;;;;;-2.17;86.74;96571.28;4974091;28;20234;-61
2021/04/10 02:59:42;;;;;;;22.13;11.07;;;;;;;-1.91;86.55;96571.44;4974029;28;20228;-61
2021/04/10 03:02:11;;;;;;;21.60;11.70;;;;;;;-2.06;86.21;96575.88;4974207;28;20229;-61
2021/04/10 03:04:40;;;;;;;29.03;14.23;;;;;;;-2.15;87.01;96576.19;4973810;28;20729;-61
2021/04/10 03:07:09;;;;;;;27.23;12.97;;;;;;;-2.35;87.89;96581.16;4973947;28;20212;-63
2021/04/10 03:09:38;;;;;;;18.53;8.53;;;;;;;-2.45;87.20;96573.84;4973707;28;20285;-61
2021/04/10 03:12:06;;;;;;;22.60;8.90;;;;;;;-2.46;86.76;96576.56;4973878;28;20201;-61
2021/04/10 03:14:36;;;;;;;18.53;8.77;;;;;;;-2.60;87.47;96580.78;4973927;28;20695;-61
2021/04/10 03:17:03;;;;;;;20.70;10.50;;;;;;;-2.72;88.90;96579.69;4974080;28;20219;-60
2021/04/10 03:19:31;;;;;;;17.67;8.97;;;;;;;-2.58;88.70;96575.50;4973596;28;20320;-61
2021/04/10 03:21:58;;;;;;;17.97;8.83;;;;;;;-2.65;88.09;96585.63;4973517;28;20363;-60
2021/04/10 03:24:26;;;;;;;17.53;9.80;;;;;;;-2.72;88.69;96588.13;4973609;28;20350;-60
2021/04/10 03:26:54;;;;;;;18.40;9.10;;;;;;;-2.71;87.40;96594.78;4973823;28;20672;-62
2021/04/10 03:29:21;;;;;;;23.23;10.57;;;;;;;-2.80;87.86;96593.34;4973493;28;20276;-62
2021/04/10 03:31:49;;;;;;;18.50;9.97;;;;;;;-2.78;88.00;96593.13;4973661;28;20213;-61
2021/04/10 03:34:16;;;;;;;16.43;8.50;;;;;;;-2.83;87.49;96596.22;4973817;28;20249;-61
2021/04/10 03:36:43;;;;;;;14.20;8.83;;;;;;;-2.84;87.22;96599.75;4973271;28;20232;-61
2021/04/10 03:39:10;;;;;;;19.00;9.87;;;;;;;-2.83;87.16;96590.34;4973537;28;20265;-60
2021/04/10 03:41:38;;;;;;;18.23;10.03;;;;;;;-2.95;87.71;96597.69;4973318;28;20252;-60
2021/04/10 03:44:06;;;;;;;19.60;10.63;;;;;;;-2.89;87.73;96599.50;4973155;28;20299;-60
2021/04/10 03:46:36;;;;;;;20.97;10.73;;;;;;;-2.78;87.90;96599.00;4973258;28;20227;-61
2021/04/10 03:49:04;;;;;;;19.23;10.30;;;;;;;-2.76;88.07;96602.19;4973036;28;20205;-60
2021/04/10 03:51:30;;;;;;;18.07;9.63;;;;;;;-2.71;88.07;96594.78;4973008;28;20304;-61
2021/04/10 03:53:57;;;;;;;21.53;9.90;;;;;;;-2.67;87.29;96595.19;4973275;28;20584;-60
2021/04/10 03:56:24;;;;;;;18.07;10.17;;;;;;;-2.68;87.67;96593.63;4973176;28;20233;-61
2021/04/10 03:58:55;;;;;;;20.50;10.90;;;;;;;-2.67;88.37;96598.53;4973165;28;20198;-60
2021/04/10 04:01:22;;;;;;;19.63;9.80;;;;;;;-2.57;88.06;96599.97;4972958;28;20212;-60
2021/04/10 04:03:49;;;;;;;19.30;10.50;;;;;;;-2.62;86.87;96598.78;4972865;28;20298;-62
2021/04/10 04:06:16;;;;;;;19.83;9.20;;;;;;;-2.57;88.00;96605.84;4972847;28;20197;-61
2021/04/10 04:08:43;;;;;;;21.90;9.90;;;;;;;-2.48;87.52;96603.94;4972770;28;20193;-61
2021/04/10 04:11:10;;;;;;;24.07;10.80;;;;;;;-2.52;86.48;96610.38;4972960;28;20197;-61
2021/04/10 04:13:37;;;;;;;20.13;9.50;;;;;;;-2.43;86.52;96609.28;4972758;28;20197;-60
2021/04/10 04:16:05;;;;;;;17.90;9.53;;;;;;;-2.46;85.48;96612.19;4972798;28;20217;-60
2021/04/10 04:18:32;;;;;;;22.00;10.80;;;;;;;-2.38;86.55;96612.06;4972596;28;20292;-60
2021/04/10 04:20:59;;;;;;;25.70;11.50;;;;;;;-2.28;85.95;96610.78;4972506;28;20677;-60
2021/04/10 04:23:26;;;;;;;34.07;15.23;;;;;;;-2.40;86.65;96609.72;4972408;28;20253;-61
2021/04/10 04:25:52;;;;;;;27.20;12.60;;;;;;;-1.82;84.83;96613.63;4972362;28;20243;-61
2021/04/10 04:28:19;;;;;;;21.77;11.77;;;;;;;-1.33;84.40;96610.09;4972499;28;20279;-62
2021/04/10 04:30:47;;;;;;;19.77;10.23;;;;;;;-0.76;81.27;96613.97;4972275;28;20279;-61
2021/04/10 04:33:14;;;;;;;19.77;10.20;;;;;;;-0.32;77.67;96615.97;4972808;28;20242;-62
2021/04/10 04:35:41;;;;;;;21.70;10.80;;;;;;;0.01;76.32;96624.38;4972334;28;20195;-61
2021/04/10 04:38:08;;;;;;;18.93;10.77;;;;;;;0.29;73.37;96616.47;4972295;28;20196;-61
2021/04/10 04:40:35;;;;;;;19.23;10.63;;;;;;;0.42;72.83;96617.22;4972168;28;20242;-61
2021/04/10 04:43:02;;;;;;;17.50;10.50;;;;;;;0.46;72.36;96621.91;4972162;28;20689;-62
2021/04/10 04:45:29;;;;;;;21.93;11.00;;;;;;;0.29;73.14;96609.59;4972459;28;20223;-60
2021/04/10 04:47:56;;;;;;;20.37;10.60;;;;;;;0.07;74.60;96612.59;4972248;28;20647;-61
2021/04/10 04:50:24;;;;;;;17.93;9.57;;;;;;;0.28;74.83;96617.47;4971845;28;20257;-60
2021/04/10 04:52:51;;;;;;;22.00;10.37;;;;;;;0.32;74.12;96616.84;4971973;28;20283;-60
2021/04/10 04:55:18;;;;;;;16.03;8.67;;;;;;;0.33;74.53;96618.44;4972291;28;20196;-61
2021/04/10 04:57:45;;;;;;;14.03;7.73;;;;;;;0.24;75.26;96623.97;4971808;28;20287;-59
2021/04/10 05:00:13;;;;;;;12.23;6.50;;;;;;;0.15;76.37;96615.69;4971886;28;20228;-61
2021/04/10 05:02:40;;;;;;;10.97;5.70;;;;;;;0.15;77.06;96620.81;4971796;28;20243;-60
2021/04/10 05:05:08;;;;;;;15.00;8.33;;;;;;;0.16;78.28;96612.16;4972244;28;20227;-63
2021/04/10 05:07:36;;;;;;;16.40;9.10;;;;;;;0.16;79.21;96608.81;4971680;28;20745;-60
2021/04/10 05:10:03;;;;;;;18.07;10.53;;;;;;;0.21;78.58;96611.56;4971571;28;20279;-63
2021/04/10 05:12:30;;;;;;;19.17;11.90;;;;;;;0.27;78.34;96621.78;4971848;28;20215;-61
2021/04/10 05:14:57;;;;;;;25.03;12.63;;;;;;;0.38;77.56;96620.38;4971794;28;20224;-60
2021/04/10 05:17:24;;;;;;;27.30;13.77;;;;;;;0.37;78.59;96613.69;4971142;28;20195;-61
2021/04/10 05:19:52;;;;;;;26.27;12.33;;;;;;;0.65;78.32;96614.19;4971629;28;20239;-60
2021/04/10 05:22:19;;;;;;;19.70;11.40;;;;;;;0.86;76.77;96621.56;4971404;28;20231;-60
2021/04/10 05:24:46;;;;;;;22.00;11.87;;;;;;;0.93;76.30;96620.75;4971225;28;20232;-60
2021/04/10 05:27:13;;;;;;;27.80;15.03;;;;;;;1.09;76.13;96615.97;4971684;28;20199;-60
2021/04/10 05:29:40;;;;;;;26.53;12.90;;;;;;;1.36;74.09;96621.69;4971810;28;20200;-61
2021/04/10 05:32:07;;;;;;;26.20;14.20;;;;;;;1.36;74.57;96616.56;4971294;28;20280;-63
2021/04/10 05:34:35;;;;;;;23.23;12.93;;;;;;;1.42;73.03;96618.28;4971528;28;20203;-61
2021/04/10 05:37:02;;;;;;;23.87;13.53;;;;;;;1.54;74.00;96626.91;4971418;28;20200;-61
2021/04/10 05:39:28;;;;;;;25.77;13.53;;;;;;;1.76;73.78;96629.06;4971245;28;20602;-62
2021/04/10 05:41:56;;;;;;;23.97;13.17;;;;;;;2.02;73.15;96623.72;4971245;28;20231;-62
2021/04/10 05:44:23;;;;;;;20.40;13.37;;;;;;;2.20;72.06;96625.53;4971451;28;20204;-62
2021/04/10 05:46:50;;;;;;;28.97;14.53;;;;;;;2.39;70.10;96627.13;4971355;28;20196;-64
2021/04/10 05:49:17;;;;;;;26.27;15.20;;;;;;;2.59;69.28;96627.69;4971097;28;20344;-61
2021/04/10 05:51:44;;;;;;;37.67;24.30;;;;;;;2.53;69.37;96626.78;4971050;28;20258;-62
2021/04/10 05:54:11;;;;;;;29.77;16.03;;;;;;;2.72;68.97;96624.97;4971126;28;20694;-61
2021/04/10 05:56:38;;;;;;;25.77;15.00;;;;;;;3.08;67.64;96634.41;4971431;28;20250;-62
2021/04/10 05:59:06;;;;;;;20.87;13.13;;;;;;;3.16;65.84;96631.53;4971291;28;20208;-62
2021/04/10 06:01:33;;;;;;;24.17;15.23;;;;;;;3.41;65.15;96628.81;4971315;28;20203;-61
2021/04/10 06:04:00;;;;;;;23.50;13.70;;;;;;;3.67;66.49;96625.84;4971176;28;20203;-61
2021/04/10 06:06:27;;;;;;;25.47;13.57;;;;;;;3.72;66.27;96620.84;4971000;28;20207;-62
2021/04/10 06:08:54;;;;;;;23.93;14.40;;;;;;;3.81;65.61;96619.50;4971295;28;20203;-60
2021/04/10 06:11:24;;;;;;;28.17;14.90;;;;;;;3.70;65.20;96614.34;4970815;28;20238;-62
2021/04/10 06:13:51;;;;;;;24.77;15.40;;;;;;;3.92;65.06;96617.16;4970694;28;20642;-63
2021/04/10 06:16:19;;;;;;;32.67;14.87;;;;;;;4.32;62.27;96618.81;4970864;28;20661;-61
2021/04/10 06:18:46;;;;;;;18.23;9.43;;;;;;;4.67;61.29;96623.13;4970800;28;20289;-61
2021/04/10 06:21:13;;;;;;;12.80;8.10;;;;;;;5.03;61.20;96612.47;4970789;28;20748;-62
2021/04/10 06:23:41;;;;;;;15.30;8.93;;;;;;;5.22;61.68;96615.66;4970395;28;20269;-62
2021/04/10 06:26:08;;;;;;;20.30;10.77;;;;;;;5.31;58.96;96613.47;4970732;28;20343;-62
2021/04/10 06:28:34;;;;;;;18.70;10.83;;;;;;;4.98;60.02;96625.25;4973133;28;20242;-62
2021/04/10 06:31:02;;;;;;;18.07;10.37;;;;;;;4.70;60.66;96625.25;4974293;28;20291;-60
2021/04/10 06:33:30;;;;;;;19.50;11.33;;;;;;;5.35;62.82;96622.31;4974511;28;20200;-62
2021/04/10 06:35:57;;;;;;;18.37;10.63;;;;;;;5.58;59.16;96620.38;4974169;28;20227;-62
2021/04/10 06:38:24;;;;;;;21.67;12.77;;;;;;;5.28;58.36;96629.41;4974005;28;20193;-61
2021/04/10 06:40:50;;;;;;;21.43;11.50;;;;;;;5.19;59.07;96626.41;4974047;28;20766;-62
2021/04/10 06:43:18;;;;;;;23.27;12.33;;;;;;;5.00;60.10;96637.91;4974065;28;20196;-63
2021/04/10 06:45:45;;;;;;;22.60;12.10;;;;;;;5.26;58.70;96621.13;4973927;28;20238;-62
2021/04/10 06:48:13;;;;;;;22.20;12.23;;;;;;;5.66;59.13;96626.97;4973909;28;20210;-62
2021/04/10 06:50:42;;;;;;;22.30;12.17;;;;;;;6.24;60.16;96618.81;4973903;28;20545;-63
2021/04/10 06:53:14;;;;;;;17.77;11.40;;;;;;;6.18;56.55;96624.13;4974226;28;20212;-61
2021/04/10 06:55:46;;;;;;;23.47;10.90;;;;;;;6.41;56.58;96619.56;4973991;28;20287;-63
2021/04/10 06:58:21;;;;;;;16.57;9.97;;;;;;;6.87;56.42;96613.13;4973701;28;20239;-62
2021/04/10 07:00:53;;;;;;;15.70;10.40;;;;;;;7.11;53.94;96618.06;4973759;28;20235;-60
2021/04/10 07:03:22;;;;;;;15.93;9.47;;;;;;;6.86;53.28;96614.19;4973825;28;20675;-61
2021/04/10 07:05:50;;;;;;;14.33;9.93;;;;;;;7.03;52.34;96608.91;4973977;28;20310;-61
2021/04/10 07:08:17;;;;;;;15.50;9.60;;;;;;;7.13;53.28;96610.81;4974000;28;20197;-60
2021/04/10 07:10:44;;;;;;;19.27;10.50;;;;;;;6.94;52.16;96602.63;4973541;28;20205;-61
2021/04/10 07:13:11;;;;;;;16.23;10.40;;;;;;;7.49;53.38;96604.97;4973534;28;20698;-62
2021/04/10 07:15:38;;;;;;;17.10;7.73;;;;;;;7.75;48.30;96611.91;4973847;28;20262;-61
2021/04/10 07:18:06;;;;;;;17.20;8.63;;;;;;;7.74;48.37;96606.97;4973849;28;20738;-62
2021/04/10 07:20:36;;;;;;;16.00;8.70;;;;;;;7.84;47.67;96611.44;4973334;28;20742;-62
2021/04/10 07:23:05;;;;;;;13.10;8.47;;;;;;;7.73;48.30;96608.78;4973287;28;20668;-61
2021/04/10 07:25:36;;;;;;;12.57;8.07;;;;;;;8.05;50.94;96608.75;4973078;28;20239;-62
2021/04/10 07:28:25;;;;;;;11.60;6.13;;;;;;;8.31;47.35;96617.50;4973179;28;20196;-63
2021/04/10 07:30:59;;;;;;;12.00;6.90;;;;;;;8.49;47.46;96609.28;4973388;28;20196;-63
2021/04/10 07:33:27;;;;;;;12.37;8.07;;;;;;;8.72;48.95;96602.91;4973424;28;20206;-62
2021/04/10 07:35:54;;;;;;;11.23;7.73;;;;;;;8.95;46.80;96609.47;4973199;28;20206;-61
2021/04/10 07:38:32;;;;;;;15.10;8.07;;;;;;;9.25;48.95;96601.78;4973102;28;20211;-62
2021/04/10 07:41:01;;;;;;;14.30;7.53;;;;;;;9.43;47.80;96598.66;4972403;28;20230;-61
2021/04/10 07:43:31;;;;;;;13.23;7.40;;;;;;;9.39;46.90;96607.22;4972936;28;20279;-62
2021/04/10 07:46:21;;;;;;;14.03;7.30;;;;;;;9.50;44.94;96601.03;4973173;28;20284;-62
2021/04/10 07:49:09;;;;;;;12.80;7.20;;;;;;;9.83;47.68;96597.13;4972937;28;20266;-62
2021/04/10 07:51:38;;;;;;;12.17;7.07;;;;;;;9.71;47.38;96594.03;4973080;28;20224;-62
2021/04/10 07:54:26;;;;;;;10.47;5.83;;;;;;;9.74;44.61;96590.91;4972875;28;20617;-62
2021/04/10 07:56:57;;;;;;;11.03;6.00;;;;;;;9.44;43.10;96576.88;4972702;28;20709;-62
2021/04/10 07:59:25;;;;;;;10.80;5.97;;;;;;;9.54;45.23;96583.88;4972506;28;20703;-62
2021/04/10 08:01:52;;;;;;;15.13;7.43;;;;;;;9.49;45.44;96587.25;4972955;28;20671;-62
2021/04/10 08:04:20;;;;;;;144.40;58.53;;;;;;;9.72;42.74;96582.56;4972565;28;20199;-61
2021/04/10 08:06:55;;;;;;;8.60;5.23;;;;;;;9.96;45.21;96583.63;4972595;28;20576;-61
2021/04/10 08:09:35;;;;;;;8.23;4.37;;;;;;;10.21;41.81;96588.78;4972845;28;20207;-62
2021/04/10 08:12:06;;;;;;;37.20;18.80;;;;;;;10.04;40.10;96585.69;4972259;28;20968;-60
2021/04/10 08:14:40;;;;;;;7.73;5.40;;;;;;;10.00;41.56;96581.28;4972762;28;20479;-60
2021/04/10 08:17:07;;;;;;;8.07;5.23;;;;;;;10.12;42.79;96582.53;4972455;28;20199;-60
2021/04/10 08:19:35;;;;;;;9.37;4.23;;;;;;;10.67;42.17;96570.44;4972309;28;20318;-60
2021/04/10 08:22:04;;;;;;;7.93;4.80;;;;;;;10.58;38.39;96570.22;4972328;28;20319;-60
2021/04/10 08:24:37;;;;;;;8.27;3.93;;;;;;;10.26;38.29;96569.81;4971926;28;20240;-60
2021/04/10 08:27:06;;;;;;;8.97;4.73;;;;;;;10.58;40.70;96564.25;4972439;28;20212;-61
2021/04/10 08:29:34;;;;;;;11.43;4.57;;;;;;;10.81;38.88;96561.00;4972345;28;20196;-59
2021/04/10 08:32:02;;;;;;;7.27;3.73;;;;;;;10.95;38.15;96562.00;4972143;28;20200;-61
2021/04/10 08:34:29;;;;;;;44.57;17.30;;;;;;;11.17;37.59;96558.97;4971992;28;20620;-61
2021/04/10 08:36:59;;;;;;;7.33;4.60;;;;;;;11.08;41.13;96550.19;4972158;28;20231;-60
2021/04/10 08:39:32;;;;;;;11.03;5.63;;;;;;;11.08;35.84;96547.59;4972161;28;20207;-60
2021/04/10 08:42:02;;;;;;;7.20;3.90;;;;;;;11.05;35.93;96543.72;4971989;28;20330;-61
2021/04/10 08:44:32;;;;;;;6.80;4.80;;;;;;;11.12;36.00;96541.59;4972137;28;20204;-60
2021/04/10 08:46:59;;;;;;;7.77;4.33;;;;;;;11.12;36.95;96546.00;4972020;28;20668;-60
2021/04/10 08:49:29;;;;;;;8.77;4.30;;;;;;;11.22;36.85;96540.75;4972045;28;20204;-62
2021/04/10 08:52:03;;;;;;;7.40;4.57;;;;;;;11.32;37.48;96535.47;4971190;28;20271;-61
2021/04/10 08:54:35;;;;;;;12.47;5.47;;;;;;;11.58;37.90;96538.66;4971744;28;20196;-60
2021/04/10 08:57:07;;;;;;;7.67;4.03;;;;;;;11.56;40.35;96528.50;4971671;28;20207;-60
2021/04/10 08:59:43;;;;;;;7.20;4.20;;;;;;;11.38;36.02;96529.19;4971523;28;20314;-60
2021/04/10 09:02:16;;;;;;;9.07;4.23;;;;;;;11.20;36.64;96527.25;4971626;28;20195;-60
2021/04/10 09:05:00;;;;;;;6.40;4.00;;;;;;;11.28;36.44;96531.06;4971785;28;20246;-63
2021/04/10 09:08:04;;;;;;;8.93;4.33;;;;;;;11.30;36.50;96521.97;4972013;28;20254;-62
2021/04/10 09:10:52;;;;;;;7.37;4.40;;;;;;;11.45;36.20;96518.47;4971947;28;20227;-61
2021/04/10 09:13:33;;;;;;;8.07;4.60;;;;;;;11.55;34.54;96507.97;4971816;28;20228;-61
2021/04/10 09:16:24;;;;;;;8.17;4.33;;;;;;;11.71;34.18;96509.34;4971642;28;20199;-62
2021/04/10 09:18:52;;;;;;;5.77;3.57;;;;;;;11.67;33.29;96503.16;4971647;28;20235;-61
2021/04/10 09:21:24;;;;;;;5.93;4.40;;;;;;;11.78;35.58;96503.88;4971561;28;20228;-61
2021/04/10 09:23:52;;;;;;;4.87;3.67;;;;;;;11.72;33.72;96495.28;4971500;28;20255;-59
2021/04/10 09:26:21;;;;;;;5.20;3.80;;;;;;;11.77;33.78;96497.09;4971630;28;20784;-60
2021/04/10 09:29:19;;;;;;;5.10;3.60;;;;;;;11.91;32.80;96490.19;4971323;28;20200;-59
2021/04/10 09:31:49;;;;;;;4.70;3.57;;;;;;;12.00;34.23;96483.34;4971437;28;20742;-59
2021/04/10 09:34:53;;;;;;;5.73;3.80;;;;;;;12.14;34.50;96478.22;4971449;28;20235;-59
2021/04/10 09:38:05;;;;;;;7.63;3.67;;;;;;;12.34;32.44;96459.72;4971436;28;20191;-59
2021/04/10 09:40:48;;;;;;;5.40;3.77;;;;;;;12.61;32.24;96465.09;4971478;28;20235;-60
2021/04/10 09:43:18;;;;;;;5.77;3.77;;;;;;;12.92;32.37;96458.41;4971505;28;20204;-59
2021/04/10 09:45:47;;;;;;;6.93;4.10;;;;;;;13.39;36.80;96456.66;4971195;28;20195;-60
2021/04/10 09:48:21;;;;;;;6.43;3.83;;;;;;;13.72;35.55;96452.16;4971392;28;20260;-60
2021/04/10 09:51:14;;;;;;;7.07;3.60;;;;;;;13.53;32.79;96457.44;4971267;28;20247;-59
2021/04/10 09:53:46;;;;;;;4.93;3.27;;;;;;;13.48;29.55;96451.53;4971045;28;20211;-60
2021/04/10 09:56:14;;;;;;;5.07;2.67;;;;;;;13.87;34.00;96446.63;4971169;28;20206;-59
2021/04/10 09:58:52;;;;;;;8.67;3.47;;;;;;;14.22;33.10;96440.72;4971050;28;20283;-60
2021/04/10 10:01:23;;;;;;;5.30;3.37;;;;;;;13.99;31.08;96441.72;4970976;28;20230;-61
2021/04/10 10:03:50;;;;;;;5.13;3.83;;;;;;;13.73;29.51;96438.81;4973923;28;20203;-60
2021/04/10 10:06:25;;;;;;;4.47;3.27;;;;;;;13.95;30.81;96432.88;4975594;28;20211;-60
2021/04/10 10:08:52;;;;;;;4.27;2.83;;;;;;;14.05;28.74;96445.75;4975410;28;20618;-61
2021/04/10 10:11:20;;;;;;;7.40;3.30;;;;;;;13.86;27.66;96434.63;4974881;28;20761;-60
2021/04/10 10:13:47;;;;;;;4.90;2.63;;;;;;;14.16;30.19;96433.25;4974842;28;20226;-61
2021/04/10 10:16:15;;;;;;;4.47;2.90;;;;;;;13.93;27.04;96423.81;4975098;28;20202;-61
2021/04/10 10:18:43;;;;;;;6.23;3.07;;;;;;;14.01;29.02;96423.13;4975353;28;20211;-61
2021/04/10 10:21:13;;;;;;;7.23;3.37;;;;;;;13.97;29.45;96417.69;4974731;28;20683;-63
2021/04/10 10:23:42;;;;;;;5.77;2.90;;;;;;;14.17;29.42;96412.06;4974772;28;20252;-61
2021/04/10 10:26:11;;;;;;;6.67;3.67;;;;;;;14.18;30.26;96405.00;4974807;28;20200;-60
2021/04/10 10:28:39;;;;;;;3.80;2.80;;;;;;;14.88;29.27;96407.16;4974723;28;20591;-61
2021/04/10 10:31:08;;;;;;;7.10;3.40;;;;;;;14.66;28.39;96410.53;4974404;28;20234;-60
2021/04/10 10:33:35;;;;;;;4.37;3.20;;;;;;;14.95;29.44;96404.88;4974577;28;20191;-60
2021/04/10 10:36:06;;;;;;;5.00;3.00;;;;;;;14.93;31.01;96396.56;4974427;28;20750;-60
2021/04/10 10:38:34;;;;;;;4.90;3.00;;;;;;;15.15;30.72;96391.28;4974805;28;20200;-60
2021/04/10 10:41:02;;;;;;;13.10;6.40;;;;;;;15.02;28.42;96386.91;4974352;28;20235;-60
2021/04/10 10:43:29;;;;;;;6.47;3.50;;;;;;;14.92;27.60;96387.94;4974348;28;20345;-60
2021/04/10 10:45:58;;;;;;;4.70;2.97;;;;;;;14.82;26.20;96393.41;4974094;28;20196;-61
2021/04/10 10:48:31;;;;;;;5.10;2.90;;;;;;;14.59;27.98;96382.13;4974048;28;20192;-61
2021/04/10 10:51:06;;;;;;;5.77;2.93;;;;;;;14.63;27.50;96384.97;4974118;28;20243;-62
2021/04/10 10:53:35;;;;;;;7.70;2.93;;;;;;;14.69;26.68;96377.78;4974367;28;20208;-60
2021/04/10 10:56:08;;;;;;;3.30;2.40;;;;;;;14.61;25.87;96371.38;4974203;28;20675;-61
2021/04/10 10:58:38;;;;;;;7.93;3.83;;;;;;;14.69;29.31;96377.78;4974519;28;20204;-61
2021/04/10 11:01:13;;;;;;;21.03;12.33;;;;;;;15.00;27.65;96368.09;4974254;28;20236;-61
2021/04/10 11:03:45;;;;;;;4.10;2.53;;;;;;;15.06;27.16;96369.53;4974207;28;20262;-65
2021/04/10 11:06:17;;;;;;;4.77;2.30;;;;;;;14.93;25.56;96363.31;4973795;28;20200;-64
2021/04/10 11:08:44;;;;;;;8.73;3.20;;;;;;;14.88;27.79;96360.03;4973813;28;20211;-63
2021/04/10 11:11:12;;;;;;;7.23;3.00;;;;;;;15.03;26.69;96351.81;4973537;28;20196;-63
2021/04/10 11:13:44;;;;;;;4.20;2.63;;;;;;;15.28;27.16;96342.53;4973120;28;20231;-62
2021/04/10 11:16:12;;;;;;;5.07;2.37;;;;;;;15.02;25.37;96345.03;4973008;28;20235;-61
2021/04/10 11:18:39;;;;;;;4.97;2.63;;;;;;;15.03;25.14;96343.97;4973532;28;20752;-62
2021/04/10 11:21:23;;;;;;;63.10;39.07;;;;;;;15.26;24.93;96339.44;4973321;28;20232;-62
2021/04/10 11:24:01;;;;;;;22.20;13.03;;;;;;;14.90;25.07;96342.19;4973239;28;20228;-61
2021/04/10 11:26:32;;;;;;;5.40;2.57;;;;;;;15.21;26.27;96322.00;4973542;28;20196;-61
2021/04/10 11:29:14;;;;;;;6.00;2.70;;;;;;;15.38;24.75;96316.84;4973495;28;20548;-60
2021/04/10 11:31:41;;;;;;;3.67;2.07;;;;;;;15.50;24.52;96318.88;4973454;28;20242;-64
2021/04/10 11:34:27;;;;;;;3.50;1.80;;;;;;;15.55;22.09;96313.53;4973909;28;20238;-62
2021/04/10 11:36:56;;;;;;;4.73;2.10;;;;;;;15.77;25.28;96312.66;4973412;28;20676;-62
2021/04/10 11:39:23;;;;;;;4.20;2.67;;;;;;;15.87;23.30;96313.16;4973961;28;20224;-62
2021/04/10 11:41:50;;;;;;;5.40;2.87;;;;;;;16.04;24.61;96309.75;4973323;28;20231;-62